sensor_id;sensor_type;location;lat;lon;timestamp;P1;durP1;ratioP1;P2;durP2;ratioP2
16033;SDS011;8121;51.418;6.998;2022-07-29T00:08:45;2.80;;;0.80;;
16033;SDS011;8121;51.418;6.998;2022-07-29T00:18:47;1.77;;;0.90;;
16033;SDS011;8121;51.418;6.998;2022-07-29T00:28:50;4.40;;;1.10;;
16033;SDS011;8121;51.418;6.998;2022-07-29T00:38:52;2.60;;;1.27;;
16033;SDS011;8121;51.418;6.998;2022-07-29T00:48:55;1.17;;;1.07;;
16033;SDS011;8121;51.418;6.998;2022-07-29T00:58:57;0.90;;;0.80;;
16033;SDS011;8121;51.418;6.998;2022-07-29T01:09:03;4.93;;;1.20;;
16033;SDS011;8121;51.418;6.998;2022-07-29T01:19:06;1.00;;;0.90;;
16033;SDS011;8121;51.418;6.998;2022-07-29T01:29:14;1.63;;;0.80;;
16033;SDS011;8121;51.418;6.998;2022-07-29T01:39:19;1.07;;;0.60;;
16033;SDS011;8121;51.418;6.998;2022-07-29T01:49:25;1.93;;;1.20;;
16033;SDS011;8121;51.418;6.998;2022-07-29T01:59:28;1.27;;;0.70;;
16033;SDS011;8121;51.418;6.998;2022-07-29T02:09:33;3.60;;;1.33;;
16033;SDS011;8121;51.418;6.998;2022-07-29T02:19:36;1.60;;;1.00;;
16033;SDS011;8121;51.418;6.998;2022-07-29T02:29:40;1.83;;;0.80;;
16033;SDS011;8121;51.418;6.998;2022-07-29T02:39:43;1.00;;;0.90;;
16033;SDS011;8121;51.418;6.998;2022-07-29T02:49:51;4.63;;;1.47;;
16033;SDS011;8121;51.418;6.998;2022-07-29T02:59:56;0.80;;;0.60;;
16033;SDS011;8121;51.418;6.998;2022-07-29T03:10:03;1.00;;;0.90;;
16033;SDS011;8121;51.418;6.998;2022-07-29T03:20:07;1.60;;;1.13;;
16033;SDS011;8121;51.418;6.998;2022-07-29T03:30:12;2.87;;;2.10;;
16033;SDS011;8121;51.418;6.998;2022-07-29T03:40:16;1.27;;;0.80;;
16033;SDS011;8121;51.418;6.998;2022-07-29T03:50:23;7.97;;;2.03;;
16033;SDS011;8121;51.418;6.998;2022-07-29T04:00:25;3.10;;;1.67;;
16033;SDS011;8121;51.418;6.998;2022-07-29T04:10:29;1.13;;;1.03;;
16033;SDS011;8121;51.418;6.998;2022-07-29T04:20:31;2.33;;;1.70;;
16033;SDS011;8121;51.418;6.998;2022-07-29T04:30:35;5.53;;;1.63;;
16033;SDS011;8121;51.418;6.998;2022-07-29T04:40:44;3.33;;;1.20;;
16033;SDS011;8121;51.418;6.998;2022-07-29T04:50:48;6.83;;;1.30;;
16033;SDS011;8121;51.418;6.998;2022-07-29T05:00:50;3.97;;;1.40;;
16033;SDS011;8121;51.418;6.998;2022-07-29T05:10:57;7.87;;;1.60;;
16033;SDS011;8121;51.418;6.998;2022-07-29T05:20:59;1.93;;;0.90;;
16033;SDS011;8121;51.418;6.998;2022-07-29T05:31:01;4.60;;;1.50;;
16033;SDS011;8121;51.418;6.998;2022-07-29T05:41:03;1.17;;;1.07;;
16033;SDS011;8121;51.418;6.998;2022-07-29T05:51:06;3.23;;;1.30;;
16033;SDS011;8121;51.418;6.998;2022-07-29T06:01:07;3.43;;;1.77;;
16033;SDS011;8121;51.418;6.998;2022-07-29T06:11:10;10.60;;;3.00;;
16033;SDS011;8121;51.418;6.998;2022-07-29T06:21:12;1.93;;;1.40;;
16033;SDS011;8121;51.418;6.998;2022-07-29T06:31:14;3.70;;;1.50;;
16033;SDS011;8121;51.418;6.998;2022-07-29T06:41:16;2.80;;;0.90;;
16033;SDS011;8121;51.418;6.998;2022-07-29T06:51:19;2.90;;;1.70;;
16033;SDS011;8121;51.418;6.998;2022-07-29T07:01:21;4.77;;;3.67;;
16033;SDS011;8121;51.418;6.998;2022-07-29T07:11:24;2.87;;;1.63;;
16033;SDS011;8121;51.418;6.998;2022-07-29T07:21:25;1.50;;;1.20;;
16033;SDS011;8121;51.418;6.998;2022-07-29T07:31:28;2.03;;;1.40;;
16033;SDS011;8121;51.418;6.998;2022-07-29T07:41:29;5.33;;;1.53;;
16033;SDS011;8121;51.418;6.998;2022-07-29T07:51:32;1.07;;;0.97;;
16033;SDS011;8121;51.418;6.998;2022-07-29T08:01:34;2.33;;;1.43;;
16033;SDS011;8121;51.418;6.998;2022-07-29T08:11:37;5.53;;;2.53;;
16033;SDS011;8121;51.418;6.998;2022-07-29T08:21:38;1.63;;;1.40;;
16033;SDS011;8121;51.418;6.998;2022-07-29T08:31:41;5.20;;;1.87;;
16033;SDS011;8121;51.418;6.998;2022-07-29T08:41:42;1.67;;;1.47;;
16033;SDS011;8121;51.418;6.998;2022-07-29T08:51:45;1.80;;;1.20;;
16033;SDS011;8121;51.418;6.998;2022-07-29T09:01:47;3.93;;;1.60;;
16033;SDS011;8121;51.418;6.998;2022-07-29T09:11:50;1.97;;;0.90;;
16033;SDS011;8121;51.418;6.998;2022-07-29T09:21:53;2.77;;;2.10;;
16033;SDS011;8121;51.418;6.998;2022-07-29T09:31:59;8.67;;;3.50;;
16033;SDS011;8121;51.418;6.998;2022-07-29T09:42:02;3.93;;;2.33;;
16033;SDS011;8121;51.418;6.998;2022-07-29T09:52:07;1.77;;;1.67;;
16033;SDS011;8121;51.418;6.998;2022-07-29T10:02:11;2.57;;;1.90;;
16033;SDS011;8121;51.418;6.998;2022-07-29T10:12:14;2.60;;;1.80;;
16033;SDS011;8121;51.418;6.998;2022-07-29T10:22:15;4.20;;;1.67;;
16033;SDS011;8121;51.418;6.998;2022-07-29T10:32:21;2.97;;;2.53;;
16033;SDS011;8121;51.418;6.998;2022-07-29T10:42:30;4.93;;;2.10;;
16033;SDS011;8121;51.418;6.998;2022-07-29T11:02:59;8.20;;;3.50;;
16033;SDS011;8121;51.418;6.998;2022-07-29T11:23:18;4.73;;;3.20;;
16033;SDS011;8121;51.418;6.998;2022-07-29T11:33:27;1.70;;;1.47;;
16033;SDS011;8121;51.418;6.998;2022-07-29T11:53:52;7.87;;;3.20;;
16033;SDS011;8121;51.418;6.998;2022-07-29T12:04:03;1.67;;;1.57;;
16033;SDS011;8121;51.418;6.998;2022-07-29T12:14:05;4.23;;;2.50;;
16033;SDS011;8121;51.418;6.998;2022-07-29T12:24:08;5.27;;;1.83;;
16033;SDS011;8121;51.418;6.998;2022-07-29T12:34:10;3.17;;;2.27;;
16033;SDS011;8121;51.418;6.998;2022-07-29T12:44:14;2.83;;;2.67;;
16033;SDS011;8121;51.418;6.998;2022-07-29T12:54:16;3.00;;;1.83;;
16033;SDS011;8121;51.418;6.998;2022-07-29T13:04:25;10.90;;;2.80;;
16033;SDS011;8121;51.418;6.998;2022-07-29T13:14:32;5.17;;;2.43;;
16033;SDS011;8121;51.418;6.998;2022-07-29T13:24:44;6.17;;;2.30;;
16033;SDS011;8121;51.418;6.998;2022-07-29T13:34:46;2.40;;;1.40;;
16033;SDS011;8121;51.418;6.998;2022-07-29T13:44:49;7.73;;;2.87;;
16033;SDS011;8121;51.418;6.998;2022-07-29T13:54:51;5.90;;;3.20;;
16033;SDS011;8121;51.418;6.998;2022-07-29T14:04:55;8.00;;;2.90;;
16033;SDS011;8121;51.418;6.998;2022-07-29T14:14:57;9.50;;;3.23;;
16033;SDS011;8121;51.418;6.998;2022-07-29T14:25:01;8.87;;;2.90;;
16033;SDS011;8121;51.418;6.998;2022-07-29T14:35:03;5.93;;;3.60;;
16033;SDS011;8121;51.418;6.998;2022-07-29T14:45:08;6.57;;;3.00;;
16033;SDS011;8121;51.418;6.998;2022-07-29T14:55:10;6.37;;;3.20;;
16033;SDS011;8121;51.418;6.998;2022-07-29T15:05:13;5.00;;;2.90;;
16033;SDS011;8121;51.418;6.998;2022-07-29T15:15:15;3.23;;;2.40;;
16033;SDS011;8121;51.418;6.998;2022-07-29T15:25:18;10.73;;;2.50;;
16033;SDS011;8121;51.418;6.998;2022-07-29T15:35:20;6.10;;;2.97;;
16033;SDS011;8121;51.418;6.998;2022-07-29T15:45:23;4.97;;;3.40;;
16033;SDS011;8121;51.418;6.998;2022-07-29T15:55:24;3.53;;;1.90;;
16033;SDS011;8121;51.418;6.998;2022-07-29T16:05:28;1.70;;;1.60;;
16033;SDS011;8121;51.418;6.998;2022-07-29T16:15:31;3.40;;;2.00;;
16033;SDS011;8121;51.418;6.998;2022-07-29T16:25:34;3.57;;;3.27;;
16033;SDS011;8121;51.418;6.998;2022-07-29T16:35:35;4.80;;;2.97;;
16033;SDS011;8121;51.418;6.998;2022-07-29T16:45:40;5.53;;;2.67;;
16033;SDS011;8121;51.418;6.998;2022-07-29T16:55:42;4.40;;;2.30;;
16033;SDS011;8121;51.418;6.998;2022-07-29T17:05:45;4.37;;;2.00;;
16033;SDS011;8121;51.418;6.998;2022-07-29T17:15:47;2.70;;;2.47;;
16033;SDS011;8121;51.418;6.998;2022-07-29T17:25:50;2.70;;;2.47;;
16033;SDS011;8121;51.418;6.998;2022-07-29T17:35:51;2.20;;;2.00;;
16033;SDS011;8121;51.418;6.998;2022-07-29T17:46:12;1.33;;;1.20;;
16033;SDS011;8121;51.418;6.998;2022-07-29T17:56:14;5.53;;;2.37;;
16033;SDS011;8121;51.418;6.998;2022-07-29T18:06:16;4.23;;;2.50;;
16033;SDS011;8121;51.418;6.998;2022-07-29T18:16:18;9.43;;;3.47;;
16033;SDS011;8121;51.418;6.998;2022-07-29T18:26:21;6.10;;;2.90;;
16033;SDS011;8121;51.418;6.998;2022-07-29T18:36:22;4.93;;;2.13;;
16033;SDS011;8121;51.418;6.998;2022-07-29T18:46:25;2.17;;;1.70;;
16033;SDS011;8121;51.418;6.998;2022-07-29T18:56:26;10.93;;;2.53;;
16033;SDS011;8121;51.418;6.998;2022-07-29T19:06:30;4.60;;;1.90;;
16033;SDS011;8121;51.418;6.998;2022-07-29T19:16:32;2.60;;;1.60;;
16033;SDS011;8121;51.418;6.998;2022-07-29T19:26:35;1.47;;;1.37;;
16033;SDS011;8121;51.418;6.998;2022-07-29T19:36:41;1.27;;;1.17;;
16033;SDS011;8121;51.418;6.998;2022-07-29T19:46:43;1.63;;;1.03;;
16033;SDS011;8121;51.418;6.998;2022-07-29T19:56:45;1.20;;;1.10;;
16033;SDS011;8121;51.418;6.998;2022-07-29T20:06:48;0.87;;;0.83;;
16033;SDS011;8121;51.418;6.998;2022-07-29T20:16:49;0.90;;;0.90;;
16033;SDS011;8121;51.418;6.998;2022-07-29T20:26:54;1.00;;;0.90;;
16033;SDS011;8121;51.418;6.998;2022-07-29T20:36:55;1.93;;;1.17;;
16033;SDS011;8121;51.418;6.998;2022-07-29T20:46:58;5.00;;;1.50;;
16033;SDS011;8121;51.418;6.998;2022-07-29T20:57:01;1.77;;;1.30;;
16033;SDS011;8121;51.418;6.998;2022-07-29T21:07:04;2.80;;;1.50;;
16033;SDS011;8121;51.418;6.998;2022-07-29T21:17:06;3.00;;;1.73;;
16033;SDS011;8121;51.418;6.998;2022-07-29T21:27:08;2.30;;;1.33;;
16033;SDS011;8121;51.418;6.998;2022-07-29T21:37:28;0.90;;;0.90;;
16033;SDS011;8121;51.418;6.998;2022-07-29T21:47:31;0.97;;;0.97;;
16033;SDS011;8121;51.418;6.998;2022-07-29T21:57:32;1.20;;;1.10;;
16033;SDS011;8121;51.418;6.998;2022-07-29T22:07:35;2.73;;;1.30;;
16033;SDS011;8121;51.418;6.998;2022-07-29T22:17:36;3.20;;;1.40;;
16033;SDS011;8121;51.418;6.998;2022-07-29T22:27:39;1.53;;;1.30;;
16033;SDS011;8121;51.418;6.998;2022-07-29T22:37:41;1.43;;;1.33;;
16033;SDS011;8121;51.418;6.998;2022-07-29T22:47:43;2.60;;;1.50;;
16033;SDS011;8121;51.418;6.998;2022-07-29T22:57:45;1.20;;;1.10;;
16033;SDS011;8121;51.418;6.998;2022-07-29T23:07:48;1.50;;;1.40;;
16033;SDS011;8121;51.418;6.998;2022-07-29T23:17:49;3.53;;;1.53;;
16033;SDS011;8121;51.418;6.998;2022-07-29T23:27:52;1.60;;;1.50;;
16033;SDS011;8121;51.418;6.998;2022-07-29T23:37:54;1.50;;;1.20;;
16033;SDS011;8121;51.418;6.998;2022-07-29T23:47:56;1.57;;;1.33;;
16033;SDS011;8121;51.418;6.998;2022-07-29T23:57:58;1.93;;;1.57;;
